sensor_id;sensor_type;location;lat;lon;timestamp;P1;durP1;ratioP1;P2;durP2;ratioP2
29712;SDS011;16623;53.632;10.016;2023-12-20T00:00:35;10.57;;;2.28;;
29712;SDS011;16623;53.632;10.016;2023-12-20T00:03:03;15.07;;;1.55;;
29712;SDS011;16623;53.632;10.016;2023-12-20T00:05:29;11.45;;;1.75;;
29712;SDS011;16623;53.632;10.016;2023-12-20T00:07:57;12.43;;;2.22;;
29712;SDS011;16623;53.632;10.016;2023-12-20T00:10:22;11.93;;;1.70;;
29712;SDS011;16623;53.632;10.016;2023-12-20T00:12:48;13.02;;;2.40;;
29712;SDS011;16623;53.632;10.016;2023-12-20T00:15:13;7.78;;;1.80;;
29712;SDS011;16623;53.632;10.016;2023-12-20T00:17:39;8.65;;;1.67;;
29712;SDS011;16623;53.632;10.016;2023-12-20T00:20:05;17.35;;;3.30;;
29712;SDS011;16623;53.632;10.016;2023-12-20T00:22:31;5.72;;;1.65;;
29712;SDS011;16623;53.632;10.016;2023-12-20T00:24:56;5.53;;;1.80;;
29712;SDS011;16623;53.632;10.016;2023-12-20T00:27:22;15.13;;;1.58;;
29712;SDS011;16623;53.632;10.016;2023-12-20T00:29:48;18.00;;;2.53;;
29712;SDS011;16623;53.632;10.016;2023-12-20T00:32:15;22.92;;;3.15;;
29712;SDS011;16623;53.632;10.016;2023-12-20T00:34:41;15.75;;;2.10;;
29712;SDS011;16623;53.632;10.016;2023-12-20T00:37:08;12.05;;;1.63;;
29712;SDS011;16623;53.632;10.016;2023-12-20T00:39:39;16.50;;;2.80;;
29712;SDS011;16623;53.632;10.016;2023-12-20T00:42:04;12.80;;;2.13;;
29712;SDS011;16623;53.632;10.016;2023-12-20T00:44:30;9.00;;;1.73;;
29712;SDS011;16623;53.632;10.016;2023-12-20T00:46:55;12.38;;;2.58;;
29712;SDS011;16623;53.632;10.016;2023-12-20T00:49:21;13.82;;;2.53;;
29712;SDS011;16623;53.632;10.016;2023-12-20T00:51:46;14.55;;;2.65;;
29712;SDS011;16623;53.632;10.016;2023-12-20T00:54:12;16.80;;;2.08;;
29712;SDS011;16623;53.632;10.016;2023-12-20T00:56:41;13.05;;;2.03;;
29712;SDS011;16623;53.632;10.016;2023-12-20T00:59:07;20.13;;;3.00;;
29712;SDS011;16623;53.632;10.016;2023-12-20T01:01:32;13.80;;;2.10;;
29712;SDS011;16623;53.632;10.016;2023-12-20T01:03:58;18.35;;;1.95;;
29712;SDS011;16623;53.632;10.016;2023-12-20T01:06:24;5.72;;;1.40;;
29712;SDS011;16623;53.632;10.016;2023-12-20T01:08:49;9.95;;;2.05;;
29712;SDS011;16623;53.632;10.016;2023-12-20T01:11:15;17.33;;;2.50;;
29712;SDS011;16623;53.632;10.016;2023-12-20T01:13:40;18.50;;;2.63;;
29712;SDS011;16623;53.632;10.016;2023-12-20T01:16:06;7.85;;;2.30;;
29712;SDS011;16623;53.632;10.016;2023-12-20T01:18:31;14.75;;;3.05;;
29712;SDS011;16623;53.632;10.016;2023-12-20T01:21:01;10.35;;;2.05;;
29712;SDS011;16623;53.632;10.016;2023-12-20T01:23:28;4.68;;;1.90;;
29712;SDS011;16623;53.632;10.016;2023-12-20T01:25:53;11.10;;;3.08;;
29712;SDS011;16623;53.632;10.016;2023-12-20T01:28:19;13.55;;;3.33;;
29712;SDS011;16623;53.632;10.016;2023-12-20T01:30:45;15.55;;;2.17;;
29712;SDS011;16623;53.632;10.016;2023-12-20T01:33:10;14.15;;;2.75;;
29712;SDS011;16623;53.632;10.016;2023-12-20T01:35:36;8.38;;;2.35;;
29712;SDS011;16623;53.632;10.016;2023-12-20T01:38:02;13.77;;;1.98;;
29712;SDS011;16623;53.632;10.016;2023-12-20T01:40:28;9.73;;;2.17;;
29712;SDS011;16623;53.632;10.016;2023-12-20T01:43:00;13.13;;;1.88;;
29712;SDS011;16623;53.632;10.016;2023-12-20T01:45:26;15.68;;;1.88;;
29712;SDS011;16623;53.632;10.016;2023-12-20T01:47:52;9.95;;;2.60;;
29712;SDS011;16623;53.632;10.016;2023-12-20T01:50:20;12.57;;;3.20;;
29712;SDS011;16623;53.632;10.016;2023-12-20T01:52:46;17.88;;;2.58;;
29712;SDS011;16623;53.632;10.016;2023-12-20T01:55:12;5.05;;;1.92;;
29712;SDS011;16623;53.632;10.016;2023-12-20T01:57:43;6.20;;;2.03;;
29712;SDS011;16623;53.632;10.016;2023-12-20T02:00:10;14.02;;;2.08;;
29712;SDS011;16623;53.632;10.016;2023-12-20T02:02:38;13.77;;;2.28;;
29712;SDS011;16623;53.632;10.016;2023-12-20T02:05:08;5.90;;;2.40;;
29712;SDS011;16623;53.632;10.016;2023-12-20T02:07:34;4.05;;;1.30;;
29712;SDS011;16623;53.632;10.016;2023-12-20T02:10:00;15.02;;;2.22;;
29712;SDS011;16623;53.632;10.016;2023-12-20T02:12:26;13.98;;;2.55;;
29712;SDS011;16623;53.632;10.016;2023-12-20T02:14:52;9.10;;;1.58;;
29712;SDS011;16623;53.632;10.016;2023-12-20T02:17:18;12.40;;;2.15;;
29712;SDS011;16623;53.632;10.016;2023-12-20T02:19:44;12.13;;;2.60;;
29712;SDS011;16623;53.632;10.016;2023-12-20T02:22:10;14.95;;;1.70;;
29712;SDS011;16623;53.632;10.016;2023-12-20T02:24:43;9.07;;;2.03;;
29712;SDS011;16623;53.632;10.016;2023-12-20T02:27:08;12.02;;;1.70;;
29712;SDS011;16623;53.632;10.016;2023-12-20T02:29:34;9.65;;;2.03;;
29712;SDS011;16623;53.632;10.016;2023-12-20T02:32:00;17.83;;;3.15;;
29712;SDS011;16623;53.632;10.016;2023-12-20T02:34:25;9.18;;;2.45;;
29712;SDS011;16623;53.632;10.016;2023-12-20T02:36:51;10.48;;;2.55;;
29712;SDS011;16623;53.632;10.016;2023-12-20T02:39:16;8.32;;;2.63;;
29712;SDS011;16623;53.632;10.016;2023-12-20T02:41:43;16.52;;;2.25;;
29712;SDS011;16623;53.632;10.016;2023-12-20T02:44:08;8.30;;;2.85;;
29712;SDS011;16623;53.632;10.016;2023-12-20T02:46:34;6.20;;;1.80;;
29712;SDS011;16623;53.632;10.016;2023-12-20T02:49:06;16.25;;;2.35;;
29712;SDS011;16623;53.632;10.016;2023-12-20T02:51:32;11.65;;;2.05;;
29712;SDS011;16623;53.632;10.016;2023-12-20T02:53:57;14.23;;;1.90;;
29712;SDS011;16623;53.632;10.016;2023-12-20T02:56:23;12.02;;;1.63;;
29712;SDS011;16623;53.632;10.016;2023-12-20T02:58:48;11.10;;;2.08;;
29712;SDS011;16623;53.632;10.016;2023-12-20T03:01:14;7.68;;;1.85;;
29712;SDS011;16623;53.632;10.016;2023-12-20T03:03:39;1.98;;;1.05;;
29712;SDS011;16623;53.632;10.016;2023-12-20T03:06:07;12.85;;;1.85;;
29712;SDS011;16623;53.632;10.016;2023-12-20T03:08:33;9.65;;;2.15;;
29712;SDS011;16623;53.632;10.016;2023-12-20T03:10:59;16.70;;;2.00;;
29712;SDS011;16623;53.632;10.016;2023-12-20T03:13:24;8.57;;;2.70;;
29712;SDS011;16623;53.632;10.016;2023-12-20T03:15:50;10.98;;;2.35;;
29712;SDS011;16623;53.632;10.016;2023-12-20T03:18:15;12.43;;;2.30;;
29712;SDS011;16623;53.632;10.016;2023-12-20T03:20:41;9.52;;;1.75;;
29712;SDS011;16623;53.632;10.016;2023-12-20T03:23:06;6.65;;;1.70;;
29712;SDS011;16623;53.632;10.016;2023-12-20T03:25:32;11.32;;;3.33;;
29712;SDS011;16623;53.632;10.016;2023-12-20T03:28:05;14.25;;;2.10;;
29712;SDS011;16623;53.632;10.016;2023-12-20T03:30:30;8.73;;;1.98;;
29712;SDS011;16623;53.632;10.016;2023-12-20T03:32:56;12.65;;;2.22;;
29712;SDS011;16623;53.632;10.016;2023-12-20T03:35:21;8.50;;;1.80;;
29712;SDS011;16623;53.632;10.016;2023-12-20T03:37:47;11.30;;;1.83;;
29712;SDS011;16623;53.632;10.016;2023-12-20T03:40:12;12.15;;;3.05;;
29712;SDS011;16623;53.632;10.016;2023-12-20T03:42:38;10.13;;;2.47;;
29712;SDS011;16623;53.632;10.016;2023-12-20T03:45:04;5.65;;;1.70;;
29712;SDS011;16623;53.632;10.016;2023-12-20T03:47:29;15.98;;;2.05;;
29712;SDS011;16623;53.632;10.016;2023-12-20T03:49:55;8.27;;;2.15;;
29712;SDS011;16623;53.632;10.016;2023-12-20T03:52:20;9.60;;;1.90;;
29712;SDS011;16623;53.632;10.016;2023-12-20T03:54:46;9.32;;;2.03;;
29712;SDS011;16623;53.632;10.016;2023-12-20T03:57:11;16.90;;;2.33;;
29712;SDS011;16623;53.632;10.016;2023-12-20T03:59:37;7.53;;;2.33;;
29712;SDS011;16623;53.632;10.016;2023-12-20T04:02:03;12.60;;;1.98;;
29712;SDS011;16623;53.632;10.016;2023-12-20T04:04:29;10.85;;;3.28;;
29712;SDS011;16623;53.632;10.016;2023-12-20T04:06:55;11.82;;;1.50;;
29712;SDS011;16623;53.632;10.016;2023-12-20T04:09:20;13.60;;;2.20;;
29712;SDS011;16623;53.632;10.016;2023-12-20T04:11:46;4.78;;;1.45;;
29712;SDS011;16623;53.632;10.016;2023-12-20T04:14:12;13.25;;;1.88;;
29712;SDS011;16623;53.632;10.016;2023-12-20T04:16:37;7.47;;;1.90;;
29712;SDS011;16623;53.632;10.016;2023-12-20T04:19:04;9.80;;;1.77;;
29712;SDS011;16623;53.632;10.016;2023-12-20T04:21:29;10.73;;;1.92;;
29712;SDS011;16623;53.632;10.016;2023-12-20T04:23:55;9.15;;;1.52;;
29712;SDS011;16623;53.632;10.016;2023-12-20T04:26:20;14.25;;;2.80;;
29712;SDS011;16623;53.632;10.016;2023-12-20T04:28:46;7.28;;;2.15;;
29712;SDS011;16623;53.632;10.016;2023-12-20T04:31:11;16.83;;;2.25;;
29712;SDS011;16623;53.632;10.016;2023-12-20T04:33:37;8.73;;;1.70;;
29712;SDS011;16623;53.632;10.016;2023-12-20T04:36:02;10.38;;;1.88;;
29712;SDS011;16623;53.632;10.016;2023-12-20T04:38:29;7.80;;;1.67;;
29712;SDS011;16623;53.632;10.016;2023-12-20T04:40:55;14.30;;;1.88;;
29712;SDS011;16623;53.632;10.016;2023-12-20T04:43:20;11.90;;;2.15;;
29712;SDS011;16623;53.632;10.016;2023-12-20T04:45:46;13.68;;;2.28;;
29712;SDS011;16623;53.632;10.016;2023-12-20T04:48:11;11.65;;;1.70;;
29712;SDS011;16623;53.632;10.016;2023-12-20T04:50:37;2.97;;;1.25;;
29712;SDS011;16623;53.632;10.016;2023-12-20T04:53:03;9.82;;;1.83;;
29712;SDS011;16623;53.632;10.016;2023-12-20T04:55:28;14.88;;;3.00;;
29712;SDS011;16623;53.632;10.016;2023-12-20T04:57:54;9.10;;;2.40;;
29712;SDS011;16623;53.632;10.016;2023-12-20T05:00:20;10.35;;;3.00;;
29712;SDS011;16623;53.632;10.016;2023-12-20T05:02:45;15.35;;;2.38;;
29712;SDS011;16623;53.632;10.016;2023-12-20T05:05:11;15.93;;;2.25;;
29712;SDS011;16623;53.632;10.016;2023-12-20T05:07:36;10.07;;;2.13;;
29712;SDS011;16623;53.632;10.016;2023-12-20T05:10:02;13.40;;;1.77;;
29712;SDS011;16623;53.632;10.016;2023-12-20T05:12:29;10.50;;;1.77;;
29712;SDS011;16623;53.632;10.016;2023-12-20T05:14:55;8.82;;;1.67;;
29712;SDS011;16623;53.632;10.016;2023-12-20T05:17:21;16.25;;;2.67;;
29712;SDS011;16623;53.632;10.016;2023-12-20T05:19:46;14.48;;;1.92;;
29712;SDS011;16623;53.632;10.016;2023-12-20T05:22:12;13.77;;;2.05;;
29712;SDS011;16623;53.632;10.016;2023-12-20T05:24:37;10.38;;;1.77;;
29712;SDS011;16623;53.632;10.016;2023-12-20T05:27:03;11.82;;;2.67;;
29712;SDS011;16623;53.632;10.016;2023-12-20T05:29:28;5.97;;;2.47;;
29712;SDS011;16623;53.632;10.016;2023-12-20T05:31:54;3.40;;;1.73;;
29712;SDS011;16623;53.632;10.016;2023-12-20T05:34:19;4.90;;;1.50;;
29712;SDS011;16623;53.632;10.016;2023-12-20T05:36:45;8.50;;;2.33;;
29712;SDS011;16623;53.632;10.016;2023-12-20T05:39:14;10.20;;;1.70;;
29712;SDS011;16623;53.632;10.016;2023-12-20T05:41:40;12.10;;;2.80;;
29712;SDS011;16623;53.632;10.016;2023-12-20T05:44:05;10.80;;;2.38;;
29712;SDS011;16623;53.632;10.016;2023-12-20T05:46:30;11.63;;;3.00;;
29712;SDS011;16623;53.632;10.016;2023-12-20T05:48:56;6.63;;;1.77;;
29712;SDS011;16623;53.632;10.016;2023-12-20T05:51:21;12.18;;;2.15;;
29712;SDS011;16623;53.632;10.016;2023-12-20T05:53:52;9.32;;;1.85;;
29712;SDS011;16623;53.632;10.016;2023-12-20T05:56:18;14.20;;;2.83;;
29712;SDS011;16623;53.632;10.016;2023-12-20T05:58:43;15.82;;;1.88;;
29712;SDS011;16623;53.632;10.016;2023-12-20T06:01:09;11.40;;;1.80;;
29712;SDS011;16623;53.632;10.016;2023-12-20T06:03:34;10.82;;;2.25;;
29712;SDS011;16623;53.632;10.016;2023-12-20T06:06:04;13.00;;;3.00;;
29712;SDS011;16623;53.632;10.016;2023-12-20T06:08:33;7.55;;;1.48;;
29712;SDS011;16623;53.632;10.016;2023-12-20T06:10:59;14.57;;;2.35;;
29712;SDS011;16623;53.632;10.016;2023-12-20T06:13:25;10.40;;;2.13;;
29712;SDS011;16623;53.632;10.016;2023-12-20T06:15:51;16.50;;;2.95;;
29712;SDS011;16623;53.632;10.016;2023-12-20T06:18:17;7.35;;;1.98;;
29712;SDS011;16623;53.632;10.016;2023-12-20T06:20:44;20.33;;;2.83;;
29712;SDS011;16623;53.632;10.016;2023-12-20T06:23:10;9.68;;;2.92;;
29712;SDS011;16623;53.632;10.016;2023-12-20T06:25:35;8.90;;;2.25;;
29712;SDS011;16623;53.632;10.016;2023-12-20T06:28:01;5.85;;;2.17;;
29712;SDS011;16623;53.632;10.016;2023-12-20T06:30:27;19.50;;;3.15;;
29712;SDS011;16623;53.632;10.016;2023-12-20T06:32:53;18.45;;;2.10;;
29712;SDS011;16623;53.632;10.016;2023-12-20T06:35:19;8.05;;;2.47;;
29712;SDS011;16623;53.632;10.016;2023-12-20T06:37:45;19.92;;;2.53;;
29712;SDS011;16623;53.632;10.016;2023-12-20T06:40:10;10.65;;;2.40;;
29712;SDS011;16623;53.632;10.016;2023-12-20T06:42:37;10.07;;;2.67;;
29712;SDS011;16623;53.632;10.016;2023-12-20T06:45:02;19.05;;;2.33;;
29712;SDS011;16623;53.632;10.016;2023-12-20T06:47:28;5.80;;;2.13;;
29712;SDS011;16623;53.632;10.016;2023-12-20T06:49:54;13.23;;;2.88;;
29712;SDS011;16623;53.632;10.016;2023-12-20T06:52:19;7.38;;;1.42;;
29712;SDS011;16623;53.632;10.016;2023-12-20T06:54:45;18.27;;;2.42;;
29712;SDS011;16623;53.632;10.016;2023-12-20T06:57:10;10.05;;;2.20;;
29712;SDS011;16623;53.632;10.016;2023-12-20T06:59:39;16.63;;;2.80;;
29712;SDS011;16623;53.632;10.016;2023-12-20T07:02:09;16.58;;;2.60;;
29712;SDS011;16623;53.632;10.016;2023-12-20T07:04:38;15.95;;;3.42;;
29712;SDS011;16623;53.632;10.016;2023-12-20T07:07:05;12.30;;;2.55;;
29712;SDS011;16623;53.632;10.016;2023-12-20T07:09:30;15.75;;;2.45;;
29712;SDS011;16623;53.632;10.016;2023-12-20T07:11:56;16.42;;;2.95;;
29712;SDS011;16623;53.632;10.016;2023-12-20T07:14:21;12.00;;;2.28;;
29712;SDS011;16623;53.632;10.016;2023-12-20T07:16:47;10.30;;;2.10;;
29712;SDS011;16623;53.632;10.016;2023-12-20T07:19:12;19.60;;;3.03;;
29712;SDS011;16623;53.632;10.016;2023-12-20T07:21:38;18.20;;;2.40;;
29712;SDS011;16623;53.632;10.016;2023-12-20T07:24:03;6.53;;;2.35;;
29712;SDS011;16623;53.632;10.016;2023-12-20T07:26:29;7.25;;;2.05;;
29712;SDS011;16623;53.632;10.016;2023-12-20T07:28:55;13.10;;;2.15;;
29712;SDS011;16623;53.632;10.016;2023-12-20T07:31:23;12.75;;;2.50;;
29712;SDS011;16623;53.632;10.016;2023-12-20T07:33:49;17.05;;;2.33;;
29712;SDS011;16623;53.632;10.016;2023-12-20T07:36:14;22.13;;;3.45;;
29712;SDS011;16623;53.632;10.016;2023-12-20T07:38:40;11.95;;;2.30;;
29712;SDS011;16623;53.632;10.016;2023-12-20T07:41:09;22.17;;;2.35;;
29712;SDS011;16623;53.632;10.016;2023-12-20T07:43:34;16.38;;;2.67;;
29712;SDS011;16623;53.632;10.016;2023-12-20T07:46:04;9.90;;;2.55;;
29712;SDS011;16623;53.632;10.016;2023-12-20T07:48:30;14.27;;;3.08;;
29712;SDS011;16623;53.632;10.016;2023-12-20T07:50:56;14.80;;;3.17;;
29712;SDS011;16623;53.632;10.016;2023-12-20T07:53:22;22.25;;;2.35;;
29712;SDS011;16623;53.632;10.016;2023-12-20T07:55:50;12.43;;;2.80;;
29712;SDS011;16623;53.632;10.016;2023-12-20T07:58:20;15.13;;;2.30;;
29712;SDS011;16623;53.632;10.016;2023-12-20T08:00:46;11.02;;;2.70;;
29712;SDS011;16623;53.632;10.016;2023-12-20T08:03:12;21.33;;;3.20;;
29712;SDS011;16623;53.632;10.016;2023-12-20T08:05:38;9.35;;;2.25;;
29712;SDS011;16623;53.632;10.016;2023-12-20T08:08:05;20.92;;;2.35;;
29712;SDS011;16623;53.632;10.016;2023-12-20T08:10:31;22.05;;;4.30;;
29712;SDS011;16623;53.632;10.016;2023-12-20T08:12:57;21.92;;;2.63;;
29712;SDS011;16623;53.632;10.016;2023-12-20T08:15:22;21.30;;;3.33;;
29712;SDS011;16623;53.632;10.016;2023-12-20T08:17:49;17.77;;;2.92;;
29712;SDS011;16623;53.632;10.016;2023-12-20T08:20:15;14.95;;;2.65;;
29712;SDS011;16623;53.632;10.016;2023-12-20T08:22:41;7.72;;;1.92;;
29712;SDS011;16623;53.632;10.016;2023-12-20T08:25:07;13.10;;;2.42;;
29712;SDS011;16623;53.632;10.016;2023-12-20T08:27:34;8.25;;;2.03;;
29712;SDS011;16623;53.632;10.016;2023-12-20T08:30:04;14.85;;;2.75;;
29712;SDS011;16623;53.632;10.016;2023-12-20T08:32:35;17.92;;;2.72;;
29712;SDS011;16623;53.632;10.016;2023-12-20T08:35:00;15.00;;;2.50;;
29712;SDS011;16623;53.632;10.016;2023-12-20T08:37:26;16.60;;;3.25;;
29712;SDS011;16623;53.632;10.016;2023-12-20T08:39:51;12.85;;;2.50;;
29712;SDS011;16623;53.632;10.016;2023-12-20T08:42:17;18.27;;;2.90;;
29712;SDS011;16623;53.632;10.016;2023-12-20T08:44:43;16.58;;;2.45;;
29712;SDS011;16623;53.632;10.016;2023-12-20T08:47:08;16.98;;;3.65;;
29712;SDS011;16623;53.632;10.016;2023-12-20T08:49:38;16.42;;;2.38;;
29712;SDS011;16623;53.632;10.016;2023-12-20T08:52:04;15.18;;;2.90;;
29712;SDS011;16623;53.632;10.016;2023-12-20T08:54:29;21.08;;;2.90;;
29712;SDS011;16623;53.632;10.016;2023-12-20T08:56:55;15.75;;;3.08;;
29712;SDS011;16623;53.632;10.016;2023-12-20T08:59:22;10.70;;;3.40;;
29712;SDS011;16623;53.632;10.016;2023-12-20T09:01:47;17.80;;;1.52;;
29712;SDS011;16623;53.632;10.016;2023-12-20T09:04:19;12.10;;;2.83;;
29712;SDS011;16623;53.632;10.016;2023-12-20T09:06:44;12.55;;;1.65;;
29712;SDS011;16623;53.632;10.016;2023-12-20T09:09:10;13.70;;;2.83;;
29712;SDS011;16623;53.632;10.016;2023-12-20T09:11:39;15.30;;;3.17;;
29712;SDS011;16623;53.632;10.016;2023-12-20T09:14:04;12.95;;;2.22;;
29712;SDS011;16623;53.632;10.016;2023-12-20T09:16:30;4.30;;;1.58;;
29712;SDS011;16623;53.632;10.016;2023-12-20T09:18:56;16.08;;;2.45;;
29712;SDS011;16623;53.632;10.016;2023-12-20T09:21:22;5.95;;;1.48;;
29712;SDS011;16623;53.632;10.016;2023-12-20T09:23:47;10.15;;;1.80;;
29712;SDS011;16623;53.632;10.016;2023-12-20T09:26:13;7.20;;;2.08;;
29712;SDS011;16623;53.632;10.016;2023-12-20T09:28:39;8.68;;;1.80;;
29712;SDS011;16623;53.632;10.016;2023-12-20T09:31:05;11.40;;;2.50;;
29712;SDS011;16623;53.632;10.016;2023-12-20T09:33:31;5.97;;;1.20;;
29712;SDS011;16623;53.632;10.016;2023-12-20T09:35:57;8.18;;;2.38;;
29712;SDS011;16623;53.632;10.016;2023-12-20T09:38:23;5.82;;;2.03;;
29712;SDS011;16623;53.632;10.016;2023-12-20T09:40:48;5.00;;;1.40;;
29712;SDS011;16623;53.632;10.016;2023-12-20T09:43:14;5.97;;;1.33;;
29712;SDS011;16623;53.632;10.016;2023-12-20T09:45:40;8.95;;;2.03;;
29712;SDS011;16623;53.632;10.016;2023-12-20T09:48:10;9.63;;;1.42;;
29712;SDS011;16623;53.632;10.016;2023-12-20T09:50:37;3.95;;;1.23;;
29712;SDS011;16623;53.632;10.016;2023-12-20T09:53:02;3.15;;;1.33;;
29712;SDS011;16623;53.632;10.016;2023-12-20T09:55:33;3.60;;;1.00;;
29712;SDS011;16623;53.632;10.016;2023-12-20T09:58:00;3.60;;;0.88;;
29712;SDS011;16623;53.632;10.016;2023-12-20T10:00:26;8.88;;;1.23;;
29712;SDS011;16623;53.632;10.016;2023-12-20T10:02:58;2.05;;;0.70;;
29712;SDS011;16623;53.632;10.016;2023-12-20T10:05:34;1.70;;;0.70;;
29712;SDS011;16623;53.632;10.016;2023-12-20T10:08:00;3.60;;;0.70;;
29712;SDS011;16623;53.632;10.016;2023-12-20T10:10:26;4.60;;;1.00;;
29712;SDS011;16623;53.632;10.016;2023-12-20T10:13:01;3.22;;;0.82;;
29712;SDS011;16623;53.632;10.016;2023-12-20T10:15:28;0.77;;;0.70;;
29712;SDS011;16623;53.632;10.016;2023-12-20T10:18:03;1.92;;;0.73;;
29712;SDS011;16623;53.632;10.016;2023-12-20T10:20:30;1.30;;;0.75;;
29712;SDS011;16623;53.632;10.016;2023-12-20T10:22:56;3.22;;;0.95;;
29712;SDS011;16623;53.632;10.016;2023-12-20T10:25:22;2.15;;;0.80;;
29712;SDS011;16623;53.632;10.016;2023-12-20T10:27:49;3.05;;;0.73;;
29712;SDS011;16623;53.632;10.016;2023-12-20T10:30:33;7.30;;;1.25;;
29712;SDS011;16623;53.632;10.016;2023-12-20T10:32:58;6.07;;;0.88;;
29712;SDS011;16623;53.632;10.016;2023-12-20T10:35:23;3.22;;;1.20;;
29712;SDS011;16623;53.632;10.016;2023-12-20T10:37:55;3.83;;;0.82;;
29712;SDS011;16623;53.632;10.016;2023-12-20T10:40:24;2.70;;;0.93;;
29712;SDS011;16623;53.632;10.016;2023-12-20T10:42:54;2.40;;;0.90;;
29712;SDS011;16623;53.632;10.016;2023-12-20T10:45:22;2.50;;;0.95;;
29712;SDS011;16623;53.632;10.016;2023-12-20T10:47:48;4.60;;;1.35;;
29712;SDS011;16623;53.632;10.016;2023-12-20T10:50:15;3.90;;;0.80;;
29712;SDS011;16623;53.632;10.016;2023-12-20T10:52:41;1.90;;;0.70;;
29712;SDS011;16623;53.632;10.016;2023-12-20T10:55:09;2.45;;;1.00;;
29712;SDS011;16623;53.632;10.016;2023-12-20T10:57:36;12.20;;;0.98;;
29712;SDS011;16623;53.632;10.016;2023-12-20T11:00:02;9.88;;;1.63;;
29712;SDS011;16623;53.632;10.016;2023-12-20T11:02:29;4.85;;;1.05;;
29712;SDS011;16623;53.632;10.016;2023-12-20T11:05:22;7.97;;;1.30;;
29712;SDS011;16623;53.632;10.016;2023-12-20T11:07:58;2.30;;;0.88;;
29712;SDS011;16623;53.632;10.016;2023-12-20T11:10:39;7.18;;;1.20;;
29712;SDS011;16623;53.632;10.016;2023-12-20T11:13:36;8.85;;;1.95;;
29712;SDS011;16623;53.632;10.016;2023-12-20T11:16:06;6.68;;;1.27;;
29712;SDS011;16623;53.632;10.016;2023-12-20T11:18:32;1.63;;;1.05;;
29712;SDS011;16623;53.632;10.016;2023-12-20T11:21:02;2.67;;;1.17;;
29712;SDS011;16623;53.632;10.016;2023-12-20T11:23:30;5.03;;;2.15;;
29712;SDS011;16623;53.632;10.016;2023-12-20T11:25:59;6.60;;;1.08;;
29712;SDS011;16623;53.632;10.016;2023-12-20T11:28:26;3.42;;;0.85;;
29712;SDS011;16623;53.632;10.016;2023-12-20T11:33:22;3.63;;;0.93;;
29712;SDS011;16623;53.632;10.016;2023-12-20T11:35:49;1.88;;;1.00;;
29712;SDS011;16623;53.632;10.016;2023-12-20T11:38:15;4.07;;;0.90;;
29712;SDS011;16623;53.632;10.016;2023-12-20T11:40:41;6.88;;;2.60;;
29712;SDS011;16623;53.632;10.016;2023-12-20T11:43:07;4.05;;;1.20;;
29712;SDS011;16623;53.632;10.016;2023-12-20T11:45:33;3.15;;;1.30;;
29712;SDS011;16623;53.632;10.016;2023-12-20T11:48:02;5.95;;;1.52;;
29712;SDS011;16623;53.632;10.016;2023-12-20T11:50:28;10.35;;;1.23;;
29712;SDS011;16623;53.632;10.016;2023-12-20T11:52:56;8.23;;;1.33;;
29712;SDS011;16623;53.632;10.016;2023-12-20T11:55:24;8.75;;;1.40;;
29712;SDS011;16623;53.632;10.016;2023-12-20T11:57:50;8.57;;;1.38;;
29712;SDS011;16623;53.632;10.016;2023-12-20T12:00:17;5.97;;;2.35;;
29712;SDS011;16623;53.632;10.016;2023-12-20T12:02:43;6.68;;;1.80;;
29712;SDS011;16623;53.632;10.016;2023-12-20T12:05:19;12.80;;;2.40;;
29712;SDS011;16623;53.632;10.016;2023-12-20T12:07:45;13.90;;;2.55;;
29712;SDS011;16623;53.632;10.016;2023-12-20T12:10:10;13.82;;;1.95;;
29712;SDS011;16623;53.632;10.016;2023-12-20T12:12:36;9.52;;;2.28;;
29712;SDS011;16623;53.632;10.016;2023-12-20T12:15:01;9.60;;;2.38;;
29712;SDS011;16623;53.632;10.016;2023-12-20T12:17:28;11.70;;;1.83;;
29712;SDS011;16623;53.632;10.016;2023-12-20T12:20:01;17.88;;;1.83;;
29712;SDS011;16623;53.632;10.016;2023-12-20T12:25:09;10.90;;;1.83;;
29712;SDS011;16623;53.632;10.016;2023-12-20T12:27:36;12.27;;;2.03;;
29712;SDS011;16623;53.632;10.016;2023-12-20T12:30:03;15.85;;;2.50;;
29712;SDS011;16623;53.632;10.016;2023-12-20T12:32:32;12.45;;;2.20;;
29712;SDS011;16623;53.632;10.016;2023-12-20T12:34:57;12.55;;;2.60;;
29712;SDS011;16623;53.632;10.016;2023-12-20T12:37:23;19.30;;;2.00;;
29712;SDS011;16623;53.632;10.016;2023-12-20T12:39:49;16.73;;;2.70;;
29712;SDS011;16623;53.632;10.016;2023-12-20T12:42:18;19.20;;;2.65;;
29712;SDS011;16623;53.632;10.016;2023-12-20T12:44:44;21.00;;;2.53;;
29712;SDS011;16623;53.632;10.016;2023-12-20T12:47:09;6.25;;;2.17;;
29712;SDS011;16623;53.632;10.016;2023-12-20T12:49:35;16.77;;;2.60;;
29712;SDS011;16623;53.632;10.016;2023-12-20T12:52:00;11.63;;;2.58;;
29712;SDS011;16623;53.632;10.016;2023-12-20T12:54:26;15.40;;;2.67;;
29712;SDS011;16623;53.632;10.016;2023-12-20T12:56:51;14.38;;;2.65;;
29712;SDS011;16623;53.632;10.016;2023-12-20T12:59:17;12.35;;;2.53;;
29712;SDS011;16623;53.632;10.016;2023-12-20T13:01:43;12.90;;;3.53;;
29712;SDS011;16623;53.632;10.016;2023-12-20T13:04:09;13.60;;;2.47;;
29712;SDS011;16623;53.632;10.016;2023-12-20T13:06:38;12.90;;;2.30;;
29712;SDS011;16623;53.632;10.016;2023-12-20T13:09:05;19.17;;;2.20;;
29712;SDS011;16623;53.632;10.016;2023-12-20T13:11:31;16.55;;;2.75;;
29712;SDS011;16623;53.632;10.016;2023-12-20T13:13:57;20.50;;;3.85;;
29712;SDS011;16623;53.632;10.016;2023-12-20T13:16:23;13.73;;;2.10;;
29712;SDS011;16623;53.632;10.016;2023-12-20T13:18:49;9.68;;;2.13;;
29712;SDS011;16623;53.632;10.016;2023-12-20T13:21:15;17.25;;;2.45;;
29712;SDS011;16623;53.632;10.016;2023-12-20T13:23:41;14.80;;;2.08;;
29712;SDS011;16623;53.632;10.016;2023-12-20T13:26:07;19.80;;;2.90;;
29712;SDS011;16623;53.632;10.016;2023-12-20T13:28:33;17.63;;;2.45;;
29712;SDS011;16623;53.632;10.016;2023-12-20T13:30:58;13.32;;;2.75;;
29712;SDS011;16623;53.632;10.016;2023-12-20T13:33:24;10.60;;;2.35;;
29712;SDS011;16623;53.632;10.016;2023-12-20T13:35:50;15.48;;;3.50;;
29712;SDS011;16623;53.632;10.016;2023-12-20T13:38:15;23.42;;;3.38;;
29712;SDS011;16623;53.632;10.016;2023-12-20T13:40:41;18.55;;;3.78;;
29712;SDS011;16623;53.632;10.016;2023-12-20T13:43:06;16.55;;;2.97;;
29712;SDS011;16623;53.632;10.016;2023-12-20T13:45:32;20.58;;;3.25;;
29712;SDS011;16623;53.632;10.016;2023-12-20T13:47:58;26.30;;;3.83;;
29712;SDS011;16623;53.632;10.016;2023-12-20T13:50:24;17.23;;;3.00;;
29712;SDS011;16623;53.632;10.016;2023-12-20T13:52:51;23.40;;;2.80;;
29712;SDS011;16623;53.632;10.016;2023-12-20T13:55:16;19.52;;;3.97;;
29712;SDS011;16623;53.632;10.016;2023-12-20T13:57:42;15.40;;;4.13;;
29712;SDS011;16623;53.632;10.016;2023-12-20T14:00:07;12.07;;;4.93;;
29712;SDS011;16623;53.632;10.016;2023-12-20T14:02:39;14.10;;;2.95;;
29712;SDS011;16623;53.632;10.016;2023-12-20T14:05:06;17.85;;;3.28;;
29712;SDS011;16623;53.632;10.016;2023-12-20T14:07:32;20.10;;;4.22;;
29712;SDS011;16623;53.632;10.016;2023-12-20T14:09:57;21.15;;;3.58;;
29712;SDS011;16623;53.632;10.016;2023-12-20T14:12:24;27.00;;;3.88;;
29712;SDS011;16623;53.632;10.016;2023-12-20T14:14:50;26.80;;;3.58;;
29712;SDS011;16623;53.632;10.016;2023-12-20T14:17:16;20.75;;;4.03;;
29712;SDS011;16623;53.632;10.016;2023-12-20T14:19:42;19.80;;;3.75;;
29712;SDS011;16623;53.632;10.016;2023-12-20T14:22:08;13.13;;;4.60;;
29712;SDS011;16623;53.632;10.016;2023-12-20T14:24:34;18.48;;;3.03;;
29712;SDS011;16623;53.632;10.016;2023-12-20T14:27:00;20.13;;;4.05;;